Lenox, Kentucky
Current Conditions -  °F | °C
As of 8:53 AM on Wednesday 26 Nov 2014 (Local Time) from KJKL Reporting Station
Overcast Overcast  
Wind Chill: 35°   Ceiling: 6500
Heat Index: 35°   Visibility: 10mi
Dew Point: 27°   Wind: 0mph
Humidity: 72%   Direction: NA
Pressure: 30.05"   Gusts: NA
Location:  37.937°N, 83.2694°W
Report Text: KJKL 261353Z AUTO 00000KT 10SM OVC065 02/M03 A3005 RMK AO2 SLP180 T00171028
Loading
Personal Weather Stations






























Interactive Weather Map New forecast layout! Learn more

10-Day Weather Forecast

Advertisements
Track Severe Weather on mobile